createdAt,value
2019-04-07T00:01:50.752Z,11.80
2019-04-07T00:04:20.364Z,11.90
2019-04-07T00:06:49.747Z,11.90
2019-04-07T00:09:20.405Z,11.80
2019-04-07T00:11:49.967Z,11.70
2019-04-07T00:14:19.262Z,11.70
2019-04-07T00:16:48.662Z,11.60
2019-04-07T00:19:18.396Z,11.60
2019-04-07T00:21:47.949Z,11.60
2019-04-07T00:24:17.906Z,11.50
2019-04-07T00:26:47.567Z,11.60
2019-04-07T00:29:17.363Z,11.80
2019-04-07T00:31:46.727Z,11.80
2019-04-07T00:34:16.024Z,11.70
2019-04-07T00:36:45.877Z,11.60
2019-04-07T00:39:19.096Z,11.60
2019-04-07T00:41:48.455Z,11.50
2019-04-07T00:44:17.874Z,11.40
2019-04-07T00:46:47.660Z,11.40
2019-04-07T00:49:17.072Z,11.30
2019-04-07T00:51:47.562Z,11.30
2019-04-07T00:54:17.251Z,11.30
2019-04-07T00:56:46.782Z,11.30
2019-04-07T00:59:16.640Z,11.30
2019-04-07T01:01:46.278Z,11.40
2019-04-07T01:04:16.419Z,11.50
2019-04-07T01:06:45.770Z,11.30
2019-04-07T01:09:14.752Z,11.10
2019-04-07T01:11:44.268Z,11.00
2019-04-07T01:14:13.592Z,11.20
2019-04-07T01:16:43.006Z,11.20
2019-04-07T01:19:12.511Z,11.20
2019-04-07T01:21:41.960Z,11.20
2019-04-07T01:24:11.255Z,11.20
2019-04-07T01:26:41.385Z,11.30
2019-04-07T01:29:11.354Z,11.20
2019-04-07T01:31:40.734Z,11.20
2019-04-07T01:34:10.642Z,11.10
2019-04-07T01:36:39.868Z,11.20
2019-04-07T01:39:11.965Z,11.10
2019-04-07T01:42:00.286Z,11.00
2019-04-07T01:44:35.533Z,10.90
2019-04-07T01:47:33.157Z,10.80
2019-04-07T01:50:22.043Z,10.70
2019-04-07T01:53:10.516Z,10.70
2019-04-07T01:56:05.375Z,10.70
2019-04-07T01:58:44.667Z,10.50
2019-04-07T02:01:23.244Z,10.30
2019-04-07T02:04:14.782Z,10.40
2019-04-07T02:06:59.980Z,10.40
2019-04-07T02:09:44.388Z,10.30
2019-04-07T02:12:45.550Z,10.30
2019-04-07T02:15:21.990Z,10.60
2019-04-07T02:18:05.926Z,10.70
2019-04-07T02:21:03.362Z,10.50
2019-04-07T02:24:03.951Z,10.40
2019-04-07T02:26:48.596Z,10.20
2019-04-07T02:29:52.835Z,10.20
2019-04-07T02:32:31.271Z,10.20
2019-04-07T02:35:29.996Z,10.20
2019-04-07T02:38:21.087Z,10.10
2019-04-07T02:41:16.001Z,10.10
2019-04-07T02:43:53.058Z,10.00
2019-04-07T02:46:40.786Z,10.00
2019-04-07T02:49:26.313Z,10.10
2019-04-07T02:52:14.790Z,9.90
2019-04-07T02:54:59.347Z,9.80
2019-04-07T02:57:36.554Z,9.70
2019-04-07T03:00:16.895Z,9.80
2019-04-07T03:03:14.520Z,9.70
2019-04-07T03:05:48.155Z,9.50
2019-04-07T03:08:37.781Z,9.50
2019-04-07T03:11:18.024Z,9.50
2019-04-07T03:13:52.076Z,9.50
2019-04-07T03:16:27.970Z,9.50
2019-04-07T03:19:08.745Z,9.50
2019-04-07T03:21:43.074Z,9.40
2019-04-07T03:24:34.830Z,9.50
2019-04-07T03:27:27.134Z,9.50
2019-04-07T03:30:20.050Z,9.30
2019-04-07T03:33:11.206Z,9.40
2019-04-07T03:35:44.832Z,9.60
2019-04-07T03:38:31.865Z,9.40
2019-04-07T03:41:23.826Z,9.30
2019-04-07T03:44:03.249Z,9.10
2019-04-07T03:47:01.505Z,9.20
2019-04-07T03:49:41.453Z,8.90
2019-04-07T03:52:28.770Z,8.80
2019-04-07T03:55:17.183Z,8.50
2019-04-07T03:58:12.293Z,8.30
2019-04-07T04:01:27.357Z,8.10
2019-04-07T04:04:16.701Z,7.90
2019-04-07T04:07:17.166Z,7.90
2019-04-07T04:09:43.086Z,7.90
2019-04-07T04:12:31.879Z,8.20
2019-04-07T04:15:04.746Z,8.30
2019-04-07T04:17:34.481Z,8.40
2019-04-07T04:20:04.722Z,8.40
2019-04-07T04:22:34.138Z,8.50
2019-04-07T04:25:03.642Z,8.30
2019-04-07T04:27:33.271Z,8.00
2019-04-07T04:30:03.071Z,7.90
2019-04-07T04:32:32.875Z,8.00
2019-04-07T04:41:18.992Z,8.30
2019-04-07T04:43:49.161Z,8.20
2019-04-07T04:46:18.785Z,8.10
2019-04-07T04:48:49.447Z,7.90
2019-04-07T04:51:19.758Z,7.80
2019-04-07T04:53:53.750Z,7.70
2019-04-07T04:56:24.302Z,7.60
2019-04-07T04:58:58.622Z,7.60
2019-04-07T05:01:28.153Z,7.70
2019-04-07T05:03:58.481Z,7.60
2019-04-07T05:06:31.209Z,7.60
2019-04-07T05:09:06.811Z,7.80
2019-04-07T05:11:40.801Z,7.90
2019-04-07T05:14:16.422Z,7.80
2019-04-07T05:16:45.346Z,7.60
2019-04-07T05:19:14.492Z,7.50
2019-04-07T05:21:51.621Z,7.40
2019-04-07T05:24:43.199Z,7.50
2019-04-07T05:27:14.635Z,7.50
2019-04-07T05:29:43.680Z,7.80
2019-04-07T05:32:12.662Z,7.90
2019-04-07T05:34:42.302Z,7.90
2019-04-07T05:37:11.888Z,8.00
2019-04-07T05:39:41.154Z,7.90
2019-04-07T05:42:10.476Z,7.90
2019-04-07T05:44:39.799Z,8.00
2019-04-07T05:47:10.878Z,8.20
2019-04-07T05:49:39.663Z,8.20
2019-04-07T05:52:09.588Z,8.20
2019-04-07T05:54:39.426Z,8.30
2019-04-07T05:57:09.672Z,8.30
2019-04-07T05:59:39.893Z,8.30
2019-04-07T06:02:09.638Z,8.20
2019-04-07T06:04:39.380Z,8.20
2019-04-07T06:07:09.099Z,8.40
2019-04-07T06:09:38.539Z,8.50
2019-04-07T06:12:09.766Z,8.70
2019-04-07T06:14:38.984Z,9.10
2019-04-07T06:17:08.039Z,9.40
2019-04-07T06:19:40.575Z,9.60
2019-04-07T06:22:08.610Z,9.80
2019-04-07T06:24:39.315Z,9.80
2019-04-07T06:27:08.819Z,9.90
2019-04-07T06:29:38.030Z,10.10
2019-04-07T06:32:09.747Z,10.40
2019-04-07T06:34:41.014Z,10.80
2019-04-07T06:37:09.853Z,11.30
2019-04-07T06:39:39.114Z,11.70
2019-04-07T06:42:08.530Z,11.90
2019-04-07T06:44:37.738Z,12.00
2019-04-07T06:47:17.472Z,12.10
2019-04-07T06:50:15.694Z,12.60
2019-04-07T06:53:04.377Z,13.00
2019-04-07T06:55:40.799Z,13.10
2019-04-07T06:58:38.791Z,13.30
2019-04-07T07:01:37.357Z,13.60
2019-04-07T07:04:35.507Z,13.90
2019-04-07T07:07:31.411Z,14.10
2019-04-07T07:10:08.299Z,14.00
2019-04-07T07:12:47.485Z,14.10
2019-04-07T07:15:36.958Z,14.20
2019-04-07T07:18:27.398Z,14.40
2019-04-07T07:21:16.663Z,14.20
2019-04-07T07:23:48.882Z,14.50
2019-04-07T07:26:17.165Z,15.00
2019-04-07T07:28:46.947Z,14.80
2019-04-07T07:31:16.698Z,14.80
2019-04-07T07:33:45.695Z,15.10
2019-04-07T07:36:17.313Z,15.10
2019-04-07T07:38:56.892Z,15.10
2019-04-07T07:41:19.197Z,15.20
2019-04-07T07:43:48.144Z,15.50
2019-04-07T07:46:20.419Z,15.30
2019-04-07T07:48:48.086Z,15.40
2019-04-07T07:51:17.119Z,15.80
2019-04-07T07:53:46.168Z,16.00
2019-04-07T07:56:15.938Z,15.90
2019-04-07T07:58:45.156Z,16.40
2019-04-07T08:01:15.685Z,16.50
2019-04-07T08:03:45.821Z,16.40
2019-04-07T08:06:15.077Z,16.60
2019-04-07T08:08:46.197Z,16.50
2019-04-07T08:11:16.464Z,16.80
2019-04-07T08:13:46.165Z,16.70
2019-04-07T08:16:16.393Z,16.70
2019-04-07T08:18:46.698Z,17.00
2019-04-07T08:21:18.987Z,16.90
2019-04-07T08:23:47.140Z,16.90
2019-04-07T08:26:16.358Z,16.90
2019-04-07T08:28:45.337Z,17.10
2019-04-07T08:31:17.748Z,17.40
2019-04-07T08:33:45.157Z,17.70
2019-04-07T08:36:14.965Z,17.60
2019-04-07T08:38:43.990Z,17.80
2019-04-07T08:41:15.472Z,18.00
2019-04-07T08:43:43.614Z,17.80
2019-04-07T08:46:13.657Z,18.10
2019-04-07T08:48:43.034Z,18.20
2019-04-07T08:51:12.032Z,18.50
2019-04-07T08:53:43.505Z,18.40
2019-04-07T08:56:11.941Z,18.30
2019-04-07T08:58:41.398Z,18.40
2019-04-07T09:01:10.629Z,18.80
2019-04-07T09:03:39.999Z,19.10
2019-04-07T09:06:09.716Z,19.20
2019-04-07T09:08:39.835Z,19.10
2019-04-07T09:11:12.933Z,19.10
2019-04-07T09:13:46.585Z,19.30
2019-04-07T09:16:28.072Z,19.40
2019-04-07T09:19:09.425Z,19.30
2019-04-07T09:21:50.126Z,19.40
2019-04-07T09:24:45.009Z,19.70
2019-04-07T09:27:37.455Z,19.60
2019-04-07T09:30:17.587Z,19.70
2019-04-07T09:32:55.859Z,19.70
2019-04-07T09:35:58.753Z,20.00
2019-04-07T09:38:42.090Z,20.10
2019-04-07T09:41:42.647Z,20.00
2019-04-07T09:44:42.071Z,20.00
2019-04-07T09:47:39.830Z,20.40
2019-04-07T09:50:32.209Z,20.90
2019-04-07T09:53:21.408Z,20.70
2019-04-07T09:56:10.635Z,20.70
2019-04-07T09:58:58.142Z,20.70
2019-04-07T10:01:59.245Z,20.60
2019-04-07T10:04:31.171Z,20.70
2019-04-07T10:07:20.545Z,20.60
2019-04-07T10:10:10.143Z,20.80
2019-04-07T10:12:43.567Z,20.50
2019-04-07T10:15:44.247Z,20.70
2019-04-07T10:18:41.191Z,20.80
2019-04-07T10:21:32.479Z,21.20
2019-04-07T10:24:19.807Z,21.20
2019-04-07T10:27:06.987Z,21.10
2019-04-07T10:29:42.957Z,21.20
2019-04-07T10:32:30.941Z,21.30
2019-04-07T10:35:05.818Z,21.30
2019-04-07T10:37:45.293Z,21.50
2019-04-07T10:40:45.393Z,21.40
2019-04-07T10:43:21.894Z,21.30
2019-04-07T10:46:11.319Z,21.50
2019-04-07T10:49:00.254Z,21.70
2019-04-07T10:51:36.457Z,21.70
2019-04-07T10:54:27.276Z,21.50
2019-04-07T10:57:08.938Z,22.00
2019-04-07T10:59:57.814Z,21.40
2019-04-07T11:02:32.594Z,21.90
2019-04-07T11:05:26.970Z,22.20
2019-04-07T11:08:16.532Z,22.60
2019-04-07T11:11:03.542Z,22.10
2019-04-07T11:13:50.144Z,22.00
2019-04-07T11:16:53.738Z,22.10
2019-04-07T11:19:37.770Z,22.20
2019-04-07T11:22:25.393Z,22.10
2019-04-07T11:25:12.999Z,22.00
2019-04-07T11:28:10.024Z,21.70
2019-04-07T11:30:49.816Z,21.90
2019-04-07T11:33:24.512Z,22.70
2019-04-07T11:36:20.105Z,22.90
2019-04-07T11:38:58.495Z,22.90
2019-04-07T11:41:51.477Z,22.60
2019-04-07T11:44:42.685Z,22.00
2019-04-07T11:47:18.597Z,23.00
2019-04-07T11:50:10.500Z,23.10
2019-04-07T11:52:51.609Z,23.00
2019-04-07T11:55:29.122Z,23.20
2019-04-07T11:58:26.064Z,22.80
2019-04-07T12:01:15.674Z,22.90
2019-04-07T12:04:05.711Z,22.50
2019-04-07T12:06:49.821Z,22.40
2019-04-07T12:09:44.411Z,22.00
2019-04-07T12:12:34.360Z,22.20
2019-04-07T12:15:25.734Z,23.20
2019-04-07T12:18:18.911Z,23.40
2019-04-07T12:21:25.410Z,23.30
2019-04-07T12:24:12.383Z,23.70
2019-04-07T12:27:03.628Z,23.60
2019-04-07T12:29:44.514Z,22.80
2019-04-07T12:32:35.907Z,23.00
2019-04-07T12:35:21.475Z,22.30
2019-04-07T12:38:12.247Z,22.60
2019-04-07T12:40:56.366Z,22.80
2019-04-07T12:43:46.855Z,23.10
2019-04-07T12:46:38.918Z,23.40
2019-04-07T12:49:13.277Z,23.90
2019-04-07T12:52:00.230Z,23.90
2019-04-07T12:54:39.631Z,24.30
2019-04-07T12:57:25.271Z,24.30
2019-04-07T13:00:11.354Z,24.10
2019-04-07T13:02:59.778Z,24.10
2019-04-07T13:05:37.907Z,23.60
2019-04-07T13:08:25.764Z,23.90
2019-04-07T13:11:11.865Z,24.00
2019-04-07T13:14:06.150Z,24.60
2019-04-07T13:16:44.748Z,24.70
2019-04-07T13:19:27.579Z,24.10
2019-04-07T13:22:08.037Z,24.10
2019-04-07T13:24:57.810Z,24.00
2019-04-07T13:27:43.684Z,23.80
2019-04-07T13:30:47.709Z,23.30
2019-04-07T13:33:28.369Z,23.50
2019-04-07T13:36:23.591Z,23.60
2019-04-07T13:38:57.818Z,23.50
2019-04-07T13:41:40.836Z,23.10
2019-04-07T13:44:29.455Z,22.90
2019-04-07T13:47:09.514Z,22.40
2019-04-07T13:50:11.527Z,22.30
2019-04-07T13:53:03.009Z,22.50
2019-04-07T13:55:47.510Z,22.90
2019-04-07T13:58:29.273Z,22.80
2019-04-07T14:01:13.791Z,22.70
2019-04-07T14:04:13.839Z,22.20
2019-04-07T14:06:49.049Z,22.40
2019-04-07T14:09:35.355Z,22.10
2019-04-07T14:12:17.332Z,22.50
2019-04-07T14:15:08.363Z,22.60
2019-04-07T14:18:02.197Z,22.90
2019-04-07T14:20:48.740Z,22.40
2019-04-07T14:23:37.015Z,23.00
2019-04-07T14:26:37.791Z,22.70
2019-04-07T14:29:17.279Z,22.90
2019-04-07T14:32:04.520Z,23.20
2019-04-07T14:34:42.093Z,23.10
2019-04-07T14:37:36.266Z,22.40
2019-04-07T14:40:26.135Z,22.90
2019-04-07T14:43:29.892Z,22.90
2019-04-07T14:46:13.303Z,23.20
2019-04-07T14:48:53.247Z,22.90
2019-04-07T14:51:48.236Z,23.00
2019-04-07T14:57:32.928Z,23.30
2019-04-07T15:00:11.785Z,23.30
2019-04-07T15:02:41.166Z,23.20
2019-04-07T15:05:20.515Z,23.40
2019-04-07T15:08:00.000Z,23.40
2019-04-07T15:10:48.438Z,23.10
2019-04-07T15:13:23.893Z,23.30
2019-04-07T15:15:51.667Z,23.40
2019-04-07T15:18:21.552Z,23.10
2019-04-07T15:20:51.613Z,22.90
2019-04-07T15:23:21.665Z,22.40
2019-04-07T15:25:51.570Z,21.90
2019-04-07T15:28:21.538Z,22.30
2019-04-07T15:30:51.773Z,22.80
2019-04-07T15:33:21.191Z,23.20
2019-04-07T15:35:50.713Z,22.70
2019-04-07T15:38:23.780Z,22.60
2019-04-07T15:40:50.671Z,22.70
2019-04-07T15:43:19.975Z,22.70
2019-04-07T15:45:49.075Z,22.50
2019-04-07T15:48:18.039Z,22.30
2019-04-07T15:50:47.520Z,22.20
2019-04-07T15:53:16.692Z,21.80
2019-04-07T15:55:53.394Z,21.40
2019-04-07T15:58:17.036Z,21.40
2019-04-07T16:00:46.209Z,21.70
2019-04-07T16:03:16.555Z,22.30
2019-04-07T16:05:46.474Z,22.40
2019-04-07T16:08:16.159Z,21.70
2019-04-07T16:10:46.566Z,21.70
2019-04-07T16:13:15.922Z,21.80
2019-04-07T16:15:46.303Z,21.50
2019-04-07T16:18:15.645Z,22.10
2019-04-07T16:20:45.446Z,21.90
2019-04-07T16:23:17.451Z,21.90
2019-04-07T16:25:45.164Z,22.00
2019-04-07T16:28:15.965Z,21.80
2019-04-07T16:30:47.825Z,21.90
2019-04-07T16:33:16.316Z,22.00
2019-04-07T16:35:50.879Z,22.20
2019-04-07T16:38:16.403Z,21.80
2019-04-07T16:40:45.482Z,21.30
2019-04-07T16:43:17.371Z,21.30
2019-04-07T16:45:46.256Z,21.00
2019-04-07T16:48:16.271Z,21.10
2019-04-07T16:50:46.053Z,21.00
2019-04-07T16:53:16.336Z,21.30
2019-04-07T16:55:48.989Z,21.00
2019-04-07T16:58:16.199Z,20.80
2019-04-07T17:00:45.601Z,20.80
2019-04-07T17:03:15.389Z,20.70
2019-04-07T17:05:45.087Z,20.70
2019-04-07T17:08:18.572Z,20.30
2019-04-07T17:10:45.406Z,20.30
2019-04-07T17:13:20.123Z,20.10
2019-04-07T17:15:45.312Z,20.00
2019-04-07T17:18:36.858Z,20.00
2019-04-07T17:21:12.613Z,19.80
2019-04-07T17:23:41.382Z,19.70
2019-04-07T17:26:11.633Z,19.60
2019-04-07T17:28:44.689Z,19.40
2019-04-07T17:33:41.511Z,19.40
2019-04-07T17:36:15.403Z,19.50
2019-04-07T17:38:47.847Z,19.50
2019-04-07T17:41:18.296Z,19.40
2019-04-07T17:43:59.348Z,19.40
2019-04-07T17:46:47.099Z,19.10
2019-04-07T17:49:35.560Z,19.10
2019-04-07T17:55:18.543Z,18.90
2019-04-07T18:06:16.044Z,18.80
2019-04-07T18:09:09.128Z,18.50
2019-04-07T18:11:41.396Z,18.60
2019-04-07T18:14:36.315Z,18.60
2019-04-07T18:17:31.397Z,18.60
2019-04-07T18:20:15.716Z,18.60
2019-04-07T18:23:07.951Z,18.50
2019-04-07T18:31:23.567Z,18.30
2019-04-07T18:36:54.240Z,18.30
2019-04-07T18:39:51.688Z,18.10
2019-04-07T18:42:36.102Z,18.00
2019-04-07T18:45:15.764Z,18.10
2019-04-07T18:47:57.896Z,18.00
2019-04-07T18:50:41.384Z,17.70
2019-04-07T18:53:48.624Z,17.60
2019-04-07T18:56:34.629Z,17.50
2019-04-07T18:59:17.091Z,17.50
2019-04-07T19:04:50.044Z,17.40
2019-04-07T19:07:48.689Z,17.50
2019-04-07T19:10:28.007Z,17.40
2019-04-07T19:13:15.599Z,17.30
2019-04-07T19:21:38.767Z,17.20
2019-04-07T19:24:31.436Z,17.20
2019-04-07T19:35:51.680Z,17.20
2019-04-07T19:38:29.392Z,17.00
2019-04-07T19:41:33.718Z,16.90
2019-04-07T19:44:36.318Z,16.90
2019-04-07T19:47:04.452Z,16.90
2019-04-07T19:50:01.602Z,16.90
2019-04-07T19:52:43.012Z,16.80
2019-04-07T19:55:26.606Z,16.80
2019-04-07T19:58:17.990Z,16.60
2019-04-07T20:01:06.474Z,16.70
2019-04-07T20:03:51.746Z,16.60
2019-04-07T20:06:41.831Z,16.70
2019-04-07T20:09:32.070Z,16.60
2019-04-07T20:12:16.349Z,16.60
2019-04-07T20:15:13.963Z,16.50
2019-04-07T20:17:56.544Z,16.20
2019-04-07T20:20:43.511Z,16.10
2019-04-07T20:23:20.820Z,16.20
2019-04-07T20:26:18.595Z,16.20
2019-04-07T20:28:53.972Z,15.90
2019-04-07T20:31:41.626Z,16.00
2019-04-07T20:34:36.514Z,16.00
2019-04-07T20:37:42.767Z,16.10
2019-04-07T20:40:43.928Z,15.80
2019-04-07T20:43:21.804Z,15.70
2019-04-07T20:45:58.974Z,15.70
2019-04-07T20:48:59.317Z,15.80
2019-04-07T20:52:03.039Z,15.90
2019-04-07T20:54:50.887Z,15.90
2019-04-07T20:57:34.996Z,16.00
2019-04-07T21:00:26.399Z,16.10
2019-04-07T21:03:22.781Z,16.10
2019-04-07T21:06:16.970Z,15.90
2019-04-07T21:09:08.082Z,15.80
2019-04-07T21:12:01.145Z,15.70
2019-04-07T21:15:18.403Z,15.50
2019-04-07T21:17:58.947Z,15.50
2019-04-07T21:20:38.960Z,15.60
2019-04-07T21:23:19.527Z,15.50
2019-04-07T21:26:15.447Z,15.40
2019-04-07T21:28:54.577Z,15.60
2019-04-07T21:31:37.692Z,15.50
2019-04-07T21:34:22.845Z,15.30
2019-04-07T21:37:12.517Z,15.30
2019-04-07T21:39:53.785Z,15.50
2019-04-07T21:42:30.753Z,15.30
2019-04-07T21:45:32.657Z,15.30
2019-04-07T21:48:07.804Z,15.30
2019-04-07T21:50:48.311Z,15.30
2019-04-07T21:53:34.953Z,15.30
2019-04-07T21:56:16.320Z,14.90
2019-04-07T21:58:59.102Z,14.90
2019-04-07T22:01:41.174Z,14.80
2019-04-07T22:04:26.443Z,14.90
2019-04-07T22:07:07.640Z,14.80
2019-04-07T22:09:50.677Z,14.90
2019-04-07T22:12:18.850Z,14.90
2019-04-07T22:14:49.061Z,14.70
2019-04-07T22:17:19.194Z,14.60
2019-04-07T22:19:49.162Z,14.50
2019-04-07T22:22:18.636Z,14.30
2019-04-07T22:24:47.991Z,14.20
2019-04-07T22:27:23.256Z,14.20
2019-04-07T22:29:49.987Z,14.30
2019-04-07T22:32:22.095Z,14.20
2019-04-07T22:34:51.146Z,14.30
2019-04-07T22:37:22.078Z,14.20
2019-04-07T22:39:52.760Z,14.10
2019-04-07T22:42:22.607Z,14.10
2019-04-07T22:44:54.378Z,13.90
2019-04-07T22:47:23.677Z,13.90
2019-04-07T22:49:53.375Z,13.80
2019-04-07T22:52:22.895Z,13.60
2019-04-07T22:54:52.290Z,13.40
2019-04-07T22:57:21.964Z,13.10
2019-04-07T22:59:52.711Z,12.90
2019-04-07T23:02:22.123Z,12.90
2019-04-07T23:04:52.451Z,13.00
2019-04-07T23:07:22.261Z,13.30
2019-04-07T23:09:52.080Z,13.50
2019-04-07T23:12:21.656Z,13.60
2019-04-07T23:14:50.926Z,13.70
2019-04-07T23:17:20.299Z,13.80
2019-04-07T23:19:50.421Z,13.80
2019-04-07T23:22:20.280Z,13.60
2019-04-07T23:24:51.042Z,13.40
2019-04-07T23:27:20.705Z,13.50
2019-04-07T23:29:50.803Z,13.30
2019-04-07T23:32:21.679Z,13.20
2019-04-07T23:34:52.010Z,13.20
2019-04-07T23:37:22.121Z,13.10
2019-04-07T23:39:51.933Z,12.90
2019-04-07T23:42:22.128Z,12.70
2019-04-07T23:44:53.126Z,12.90
2019-04-07T23:47:23.595Z,12.90
2019-04-07T23:49:54.365Z,12.90
2019-04-07T23:52:25.137Z,12.80
2019-04-07T23:54:54.701Z,12.90
2019-04-07T23:57:24.002Z,12.80
2019-04-07T23:59:54.099Z,13.00
